createdAt,value
2023-09-30T00:03:22.907Z,101821.25
2023-09-30T00:07:24.505Z,101823.53
2023-09-30T00:11:26.037Z,101833.13
2023-09-30T00:15:27.674Z,101826.63
2023-09-30T00:19:29.364Z,101837.47
2023-09-30T00:23:30.865Z,101853.03
2023-09-30T00:27:32.370Z,101840.50
2023-09-30T00:31:34.003Z,101849.72
2023-09-30T00:35:35.645Z,101855.31
2023-09-30T00:39:38.231Z,101856.09
2023-09-30T00:43:39.755Z,101860.13
2023-09-30T00:47:41.668Z,101858.75
2023-09-30T00:51:48.415Z,101868.88
2023-09-30T00:55:52.259Z,101868.59
2023-09-30T00:59:54.162Z,101863.47
2023-09-30T01:03:56.155Z,101871.09
2023-09-30T01:07:58.047Z,101877.72
2023-09-30T01:11:59.518Z,101881.34
2023-09-30T01:16:04.442Z,101884.44
2023-09-30T01:20:07.904Z,101890.34
2023-09-30T01:24:09.687Z,101892.53
2023-09-30T01:28:11.466Z,101885.13
2023-09-30T01:32:14.878Z,101897.50
2023-09-30T01:36:18.704Z,101900.63
2023-09-30T01:40:20.472Z,101910.44
2023-09-30T01:44:21.992Z,101909.72
2023-09-30T01:48:23.555Z,101905.06
2023-09-30T01:52:25.110Z,101905.81
2023-09-30T01:56:26.900Z,101912.94
2023-09-30T02:00:29.616Z,101912.88
2023-09-30T02:04:32.013Z,101917.56
2023-09-30T02:08:33.880Z,101915.47
2023-09-30T02:12:35.563Z,101928.59
2023-09-30T02:16:39.176Z,101923.78
2023-09-30T02:20:41.281Z,101931.06
2023-09-30T02:24:42.874Z,101933.38
2023-09-30T02:28:44.649Z,101936.03
2023-09-30T02:32:48.061Z,101929.09
2023-09-30T02:36:49.886Z,101925.78
2023-09-30T02:40:52.628Z,101927.53
2023-09-30T02:44:54.249Z,101927.53
2023-09-30T02:48:55.718Z,101935.25
2023-09-30T02:52:57.299Z,101936.44
2023-09-30T02:57:00.238Z,101942.06
2023-09-30T03:01:01.962Z,101940.53
2023-09-30T03:05:03.932Z,101942.25
2023-09-30T03:09:05.829Z,101939.38
2023-09-30T03:13:09.934Z,101940.31
2023-09-30T03:17:12.886Z,101940.06
2023-09-30T03:21:15.767Z,101945.09
2023-09-30T03:25:18.819Z,101956.47
2023-09-30T03:29:20.493Z,101950.66
2023-09-30T03:33:22.072Z,101956.84
2023-09-30T03:37:23.591Z,101957.72
2023-09-30T03:41:25.159Z,101965.91
2023-09-30T03:45:27.403Z,101972.25
2023-09-30T03:49:29.594Z,101976.53
2023-09-30T03:53:31.079Z,101975.59
2023-09-30T03:57:34.791Z,101978.31
2023-09-30T04:01:36.490Z,101978.03
2023-09-30T04:05:38.042Z,101972.28
2023-09-30T04:09:39.649Z,101971.88
2023-09-30T04:13:41.195Z,101965.72
2023-09-30T04:17:42.735Z,101965.91
2023-09-30T04:21:44.362Z,101965.28
2023-09-30T04:25:45.914Z,101962.06
2023-09-30T04:29:47.420Z,101967.91
2023-09-30T04:33:52.018Z,101967.16
2023-09-30T04:37:53.644Z,101965.44
2023-09-30T04:41:55.967Z,101978.94
2023-09-30T04:45:58.974Z,101980.69
2023-09-30T04:50:00.547Z,101987.09
2023-09-30T04:54:03.334Z,101982.00
2023-09-30T04:58:06.185Z,101992.63
2023-09-30T05:02:07.757Z,101984.00
2023-09-30T05:06:09.272Z,101998.88
2023-09-30T05:10:14.490Z,102001.09
2023-09-30T05:14:17.511Z,102000.63
2023-09-30T05:18:19.230Z,102006.81
2023-09-30T05:22:24.817Z,101997.38
2023-09-30T05:26:26.319Z,102007.53
2023-09-30T05:30:27.873Z,102007.50
2023-09-30T05:34:29.472Z,102017.19
2023-09-30T05:38:32.433Z,102015.81
2023-09-30T05:42:34.187Z,102020.31
2023-09-30T05:46:35.862Z,102035.91
2023-09-30T05:50:38.412Z,102034.00
2023-09-30T05:54:39.949Z,102033.16
2023-09-30T05:58:42.670Z,102027.94
2023-09-30T06:02:45.165Z,102025.66
2023-09-30T06:06:46.777Z,102028.00
2023-09-30T06:10:48.478Z,102035.38
2023-09-30T06:14:49.935Z,102039.22
2023-09-30T06:18:52.063Z,102046.72
2023-09-30T06:22:56.628Z,102044.34
2023-09-30T06:26:58.234Z,102055.06
2023-09-30T06:30:59.804Z,102045.03
2023-09-30T06:35:01.540Z,102057.78
2023-09-30T06:39:06.621Z,102073.72
2023-09-30T06:43:08.985Z,102081.38
2023-09-30T06:47:13.278Z,102081.84
2023-09-30T06:51:18.766Z,102084.66
2023-09-30T06:55:20.372Z,102084.44
2023-09-30T06:59:21.838Z,102094.63
2023-09-30T07:03:26.788Z,102103.31
2023-09-30T07:07:29.937Z,102102.75
2023-09-30T07:11:34.726Z,102111.75
2023-09-30T07:15:36.576Z,102130.78
2023-09-30T07:19:38.327Z,102135.75
2023-09-30T07:23:39.947Z,102137.31
2023-09-30T07:27:41.525Z,102141.03
2023-09-30T07:31:43.112Z,102141.31
2023-09-30T07:35:44.696Z,102149.66
2023-09-30T07:39:46.559Z,102148.44
2023-09-30T07:43:48.298Z,102140.03
2023-09-30T07:47:50.508Z,102156.72
2023-09-30T07:51:52.265Z,102155.38
2023-09-30T07:55:55.261Z,102149.81
2023-09-30T07:59:56.821Z,102156.03
2023-09-30T08:03:58.534Z,102163.66
2023-09-30T08:08:00.099Z,102174.09
2023-09-30T08:12:01.765Z,102168.31
2023-09-30T08:16:03.564Z,102155.44
2023-09-30T08:20:05.840Z,102165.66
2023-09-30T08:24:07.789Z,102171.06
2023-09-30T08:28:10.475Z,102176.75
2023-09-30T08:32:12.001Z,102176.94
2023-09-30T08:36:13.757Z,102182.75
2023-09-30T08:40:15.378Z,102178.69
2023-09-30T08:44:17.411Z,102188.22
2023-09-30T08:48:19.180Z,102178.31
2023-09-30T08:52:21.319Z,102184.50
2023-09-30T08:56:26.047Z,102181.97
2023-09-30T09:00:27.577Z,102185.72
2023-09-30T09:04:29.449Z,102196.13
2023-09-30T09:08:30.987Z,102189.72
2023-09-30T09:12:35.182Z,102190.56
2023-09-30T09:16:36.776Z,102182.41
2023-09-30T09:20:38.566Z,102188.09
2023-09-30T09:24:40.479Z,102196.81
2023-09-30T09:28:43.716Z,102197.53
2023-09-30T09:32:58.817Z,102193.84
2023-09-30T09:37:00.512Z,102196.34
2023-09-30T09:41:02.112Z,102196.16
2023-09-30T09:45:06.464Z,102185.56
2023-09-30T09:49:08.919Z,102190.63
2023-09-30T09:53:11.403Z,102191.03
2023-09-30T09:57:13.306Z,102189.34
2023-09-30T10:01:15.001Z,102179.84
2023-09-30T10:05:17.894Z,102186.97
2023-09-30T10:09:24.165Z,102187.22
2023-09-30T10:14:04.009Z,102185.75
2023-09-30T10:18:15.832Z,102192.69
2023-09-30T10:22:21.606Z,102196.66
2023-09-30T10:26:25.454Z,102203.34
2023-09-30T10:30:27.328Z,102186.72
2023-09-30T10:34:29.069Z,102198.53
2023-09-30T10:38:41.500Z,102200.47
2023-09-30T10:42:55.885Z,102211.06
2023-09-30T10:47:04.030Z,102211.28
2023-09-30T10:51:13.032Z,102212.34
2023-09-30T10:55:20.306Z,102217.13
2023-09-30T10:59:26.555Z,102211.22
2023-09-30T11:03:28.212Z,102216.94
2023-09-30T11:07:31.072Z,102206.16
2023-09-30T11:11:44.806Z,102209.56
2023-09-30T11:15:47.272Z,102210.00
2023-09-30T11:19:49.860Z,102201.19
2023-09-30T11:23:52.360Z,102198.56
2023-09-30T11:27:53.922Z,102214.69
2023-09-30T11:31:56.353Z,102216.19
2023-09-30T11:36:06.691Z,102217.41
2023-09-30T11:40:13.047Z,102206.09
2023-09-30T11:44:16.172Z,102206.38
2023-09-30T11:48:20.318Z,102214.66
2023-09-30T11:52:28.507Z,102217.63
2023-09-30T11:56:30.547Z,102205.09
2023-09-30T12:00:32.354Z,102211.13
2023-09-30T12:04:34.174Z,102210.75
2023-09-30T12:08:35.806Z,102205.88
2023-09-30T12:12:37.431Z,102198.47
2023-09-30T12:16:39.959Z,102201.69
2023-09-30T12:20:42.442Z,102191.81
2023-09-30T12:24:43.991Z,102194.13
2023-09-30T12:28:45.521Z,102201.13
2023-09-30T12:32:47.279Z,102193.31
2023-09-30T12:36:49.130Z,102191.84
2023-09-30T12:40:50.703Z,102196.63
2023-09-30T12:44:52.192Z,102188.75
2023-09-30T12:48:54.083Z,102192.69
2023-09-30T12:52:55.598Z,102195.66
2023-09-30T12:56:57.088Z,102195.34
2023-09-30T13:01:08.068Z,102202.53
2023-09-30T13:05:21.062Z,102202.38
2023-09-30T13:09:22.983Z,102206.34
2023-09-30T13:13:24.658Z,102203.91
2023-09-30T13:17:26.430Z,102205.41
2023-09-30T13:21:28.006Z,102207.19
2023-09-30T13:25:29.690Z,102200.25
2023-09-30T13:29:31.172Z,102185.72
2023-09-30T13:33:32.760Z,102191.25
2023-09-30T13:37:34.599Z,102186.56
2023-09-30T13:41:36.917Z,102191.91
2023-09-30T13:45:38.821Z,102194.88
2023-09-30T13:49:40.524Z,102195.03
2023-09-30T13:53:44.138Z,102191.31
2023-09-30T13:57:49.594Z,102189.50
2023-09-30T14:01:51.256Z,102195.34
2023-09-30T14:05:54.301Z,102192.03
2023-09-30T14:09:55.802Z,102192.16
2023-09-30T14:13:57.426Z,102189.75
2023-09-30T14:18:03.353Z,102179.19
2023-09-30T14:22:06.184Z,102181.75
2023-09-30T14:26:11.849Z,102182.34
2023-09-30T14:30:13.894Z,102176.72
2023-09-30T14:34:16.252Z,102175.88
2023-09-30T14:38:18.036Z,102183.19
2023-09-30T14:42:19.566Z,102178.13
2023-09-30T14:46:21.714Z,102170.91
2023-09-30T14:50:23.289Z,102163.41
2023-09-30T14:54:25.176Z,102164.38
2023-09-30T14:58:26.692Z,102164.72
2023-09-30T15:02:28.228Z,102173.28
2023-09-30T15:06:30.117Z,102165.47
2023-09-30T15:10:31.761Z,102162.09
2023-09-30T15:14:33.617Z,102173.47
2023-09-30T15:18:35.156Z,102171.25
2023-09-30T15:22:37.228Z,102180.75
2023-09-30T15:26:38.758Z,102177.50
2023-09-30T15:30:40.873Z,102183.38
2023-09-30T15:34:42.416Z,102179.34
2023-09-30T15:38:44.000Z,102194.28
2023-09-30T15:42:47.071Z,102184.63
2023-09-30T15:46:48.758Z,102176.00
2023-09-30T15:50:50.433Z,102182.09
2023-09-30T15:54:53.582Z,102189.84
2023-09-30T15:58:55.265Z,102191.34
2023-09-30T16:02:56.765Z,102183.91
2023-09-30T16:06:58.438Z,102184.59
2023-09-30T16:10:59.941Z,102180.66
2023-09-30T16:15:05.072Z,102173.72
2023-09-30T16:19:06.615Z,102170.78
2023-09-30T16:23:08.086Z,102170.16
2023-09-30T16:27:09.608Z,102170.94
2023-09-30T16:31:11.654Z,102177.16
2023-09-30T16:35:13.300Z,102171.41
2023-09-30T16:39:15.863Z,102179.25
2023-09-30T16:43:18.127Z,102168.63
2023-09-30T16:47:19.684Z,102171.13
2023-09-30T16:51:22.300Z,102170.16
2023-09-30T16:55:23.794Z,102172.47
2023-09-30T16:59:25.586Z,102176.25
2023-09-30T17:03:29.739Z,102186.63
2023-09-30T17:07:31.272Z,102173.72
2023-09-30T17:11:32.771Z,102173.44
2023-09-30T17:15:34.390Z,102182.94
2023-09-30T17:19:35.883Z,102183.47
2023-09-30T17:23:37.329Z,102183.88
2023-09-30T17:27:38.985Z,102188.34
2023-09-30T17:31:40.643Z,102184.72
2023-09-30T17:35:42.253Z,102191.88
2023-09-30T17:39:46.281Z,102191.56
2023-09-30T17:43:47.801Z,102203.19
2023-09-30T17:47:49.248Z,102201.09
2023-09-30T17:51:50.934Z,102205.91
2023-09-30T17:55:52.456Z,102199.97
2023-09-30T17:59:53.911Z,102201.06
2023-09-30T18:03:55.441Z,102211.19
2023-09-30T18:07:58.516Z,102214.03
2023-09-30T18:12:00.063Z,102208.16
2023-09-30T18:16:05.217Z,102215.72
2023-09-30T18:20:09.375Z,102204.91
2023-09-30T18:24:10.963Z,102203.81
2023-09-30T18:28:12.471Z,102206.94
2023-09-30T18:32:14.024Z,102209.91
2023-09-30T18:36:15.912Z,102201.19
2023-09-30T18:40:17.447Z,102195.59
2023-09-30T18:44:18.942Z,102199.28
2023-09-30T18:48:20.444Z,102197.97
2023-09-30T18:52:21.950Z,102192.38
2023-09-30T18:56:23.587Z,102191.69
2023-09-30T19:00:25.801Z,102203.00
2023-09-30T19:04:27.381Z,102199.84
2023-09-30T19:08:28.913Z,102206.44
2023-09-30T19:12:30.480Z,102208.19
2023-09-30T19:16:32.245Z,102213.25
2023-09-30T19:20:33.962Z,102207.63
2023-09-30T19:24:35.463Z,102208.53
2023-09-30T19:28:37.710Z,102211.09
2023-09-30T19:32:39.369Z,102205.25
2023-09-30T19:36:41.003Z,102201.28
2023-09-30T19:40:42.504Z,102204.81
2023-09-30T19:44:45.989Z,102210.50
2023-09-30T19:48:47.514Z,102210.72
2023-09-30T19:52:49.035Z,102216.91
2023-09-30T19:56:50.485Z,102215.09
2023-09-30T20:00:52.048Z,102210.94
2023-09-30T20:04:53.904Z,102219.00
2023-09-30T20:08:56.624Z,102216.88
2023-09-30T20:12:58.267Z,102221.16
2023-09-30T20:16:59.976Z,102225.94
2023-09-30T20:21:01.566Z,102219.91
2023-09-30T20:25:03.242Z,102218.91
2023-09-30T20:29:08.287Z,102218.25
2023-09-30T20:33:09.744Z,102220.25
2023-09-30T20:37:11.229Z,102213.78
2023-09-30T20:41:12.750Z,102213.97
2023-09-30T20:45:14.450Z,102210.44
2023-09-30T20:49:18.869Z,102210.28
2023-09-30T20:53:20.542Z,102207.47
2023-09-30T20:57:22.023Z,102200.00
2023-09-30T21:01:23.751Z,102213.44
2023-09-30T21:05:25.480Z,102212.41
2023-09-30T21:09:27.124Z,102211.25
2023-09-30T21:13:28.619Z,102205.94
2023-09-30T21:17:30.374Z,102202.09
2023-09-30T21:21:32.320Z,102209.31
2023-09-30T21:25:36.811Z,102211.94
2023-09-30T21:29:38.360Z,102208.72
2023-09-30T21:33:39.822Z,102211.53
2023-09-30T21:37:41.391Z,102200.56
2023-09-30T21:41:42.890Z,102211.41
2023-09-30T21:45:44.675Z,102212.41
2023-09-30T21:49:46.222Z,102206.00
2023-09-30T21:53:47.746Z,102207.50
2023-09-30T21:57:49.253Z,102204.94
2023-09-30T22:01:50.766Z,102208.06
2023-09-30T22:05:52.663Z,102207.72
2023-09-30T22:09:54.723Z,102198.72
2023-09-30T22:13:57.032Z,102200.22
2023-09-30T22:18:00.887Z,102199.63
2023-09-30T22:22:11.417Z,102210.34
2023-09-30T22:26:14.070Z,102210.72
2023-09-30T22:30:15.673Z,102222.00
2023-09-30T22:34:17.244Z,102213.56
2023-09-30T22:38:19.074Z,102208.88
2023-09-30T22:42:20.545Z,102209.31
2023-09-30T22:46:22.110Z,102208.22
2023-09-30T22:50:24.002Z,102205.84
2023-09-30T22:54:25.458Z,102198.09
2023-09-30T22:58:29.711Z,102197.53
2023-09-30T23:13:51.432Z,102190.88
2023-09-30T23:17:53.827Z,102187.84
2023-09-30T23:21:55.782Z,102193.31
2023-09-30T23:25:57.329Z,102197.25
2023-09-30T23:30:00.453Z,102191.16
2023-09-30T23:34:06.324Z,102197.09
2023-09-30T23:38:08.959Z,102196.56
2023-09-30T23:42:10.634Z,102188.00
2023-09-30T23:46:13.032Z,102199.84
2023-09-30T23:50:17.786Z,102189.72
2023-09-30T23:54:21.041Z,102181.78
2023-09-30T23:58:22.575Z,102181.31
